Austin, Texas
Traffic Map
Current Weather Conditions
Austin, Texas
Overcast
Overcast
75°
Feels Like: 75°
Wind Chill: 75° Ceiling: 1000
Heat Index: 75° Visibility: 10mi
Dew Point: 72° Wind: 8mph
Humidity: 90% Direction: 160° (SSE)
Pressure: 29.91in Gusts: 0mph
Raw Report DataKATT 240751Z AUTO 16007KT 10SM BKN010 OVC031 24/22 A2991 RMK AO2 CIG 009V013 SLP113 T02390222
Traffic Incident Summary
Active as of:
Severity:
Category:
InformationThere was an issue retrieving the traffic information for this location. Please try a different location or try again shortly.
Advertisements
Track Severe Weather on mobile